Time;durP1;ratioP1;P1;durP2;ratioP2;P2;SDS_P1;SDS_P2;PMS_P1;PMS_P2;Temp;Humidity;BMP_temperature;BMP_pressure;BME280_temperature;BME280_humidity;BME280_pressure;Samples;Min_cycle;Max_cycle;Signal;HPM_P1;HPM_P2
2022/12/16 00:01:39;;;;;;;102.13;44.75;;;;;;;-7.57;69.92;100509.19;6092301;23;20019;-72
2022/12/16 00:04:06;;;;;;;97.60;42.05;;;;;;;-7.50;69.72;100510.69;6092811;23;20029;-72
2022/12/16 00:06:33;;;;;;;111.30;46.20;;;;;;;-7.53;69.70;100511.66;6093296;23;20042;-73
2022/12/16 00:09:00;;;;;;;107.28;45.28;;;;;;;-7.49;70.00;100512.41;6093130;23;20032;-73
2022/12/16 00:11:30;;;;;;;105.43;45.28;;;;;;;-7.47;69.69;100508.81;6092961;23;20031;-72
2022/12/16 00:13:57;;;;;;;102.10;44.20;;;;;;;-7.41;69.37;100510.38;6085275;23;20022;-71
2022/12/16 00:16:23;;;;;;;112.22;44.88;;;;;;;-7.33;69.28;100512.72;6094619;23;20033;-72
2022/12/16 00:18:50;;;;;;;119.13;46.75;;;;;;;-7.46;69.74;100515.75;6096048;23;20018;-72
2022/12/16 00:21:18;;;;;;;120.47;47.30;;;;;;;-7.44;69.84;100507.88;6095405;23;20050;-72
2022/12/16 00:23:44;;;;;;;110.90;47.00;;;;;;;-7.41;69.42;100510.38;6095012;23;20037;-73
2022/12/16 00:26:12;;;;;;;112.68;46.60;;;;;;;-7.36;69.17;100505.84;6095004;23;20019;-71
2022/12/16 00:28:39;;;;;;;105.75;45.53;;;;;;;-7.58;69.81;100518.75;6095405;23;20033;-71
2022/12/16 00:31:06;;;;;;;112.00;46.00;;;;;;;-7.41;69.37;100518.22;6094146;23;20304;-72
2022/12/16 00:33:33;;;;;;;106.40;43.35;;;;;;;-7.57;69.83;100524.81;6094421;23;20030;-73
2022/12/16 00:36:00;;;;;;;106.57;43.53;;;;;;;-7.44;69.46;100532.19;6093909;23;20032;-72
2022/12/16 00:38:26;;;;;;;113.28;48.53;;;;;;;-7.63;69.78;100534.53;6095418;23;20037;-71
2022/12/16 00:40:53;;;;;;;108.47;45.95;;;;;;;-7.47;69.32;100541.84;6094757;23;20026;-72
2022/12/16 00:43:20;;;;;;;103.75;44.65;;;;;;;-7.51;69.11;100545.47;6094908;23;20061;-71
2022/12/16 00:45:47;;;;;;;101.78;44.20;;;;;;;-7.51;69.42;100545.47;6094997;23;20029;-71
2022/12/16 00:48:14;;;;;;;107.70;45.83;;;;;;;-7.57;68.88;100545.66;6089117;23;20022;-73
2022/12/16 00:50:46;;;;;;;107.53;43.55;;;;;;;-7.57;69.01;100545.66;6093706;23;20029;-71
2022/12/16 00:53:12;;;;;;;101.97;41.38;;;;;;;-7.54;68.30;100542.97;6094026;23;20021;-71
2022/12/16 00:55:39;;;;;;;92.80;42.13;;;;;;;-7.49;67.94;100543.66;6093215;23;20033;-71
2022/12/16 00:58:05;;;;;;;96.30;41.20;;;;;;;-7.52;67.96;100542.00;6093086;23;20022;-71
2022/12/16 01:00:31;;;;;;;95.25;42.25;;;;;;;-7.64;68.10;100537.19;6093415;23;20023;-72
2022/12/16 01:02:58;;;;;;;97.53;40.58;;;;;;;-7.76;68.66;100538.44;6094363;23;20031;-72
2022/12/16 01:05:27;;;;;;;100.63;42.70;;;;;;;-7.84;68.41;100536.06;6095395;23;20097;-72
2022/12/16 01:07:54;;;;;;;87.35;38.15;;;;;;;-7.79;68.32;100529.88;6095227;23;20018;-72
2022/12/16 01:10:23;;;;;;;93.13;40.20;;;;;;;-7.80;68.22;100528.16;6093327;23;20018;-70
2022/12/16 01:12:50;;;;;;;97.63;38.88;;;;;;;-7.84;68.92;100533.47;6093390;23;20470;-72
2022/12/16 01:15:17;;;;;;;83.60;38.50;;;;;;;-7.73;67.97;100535.75;6094028;23;20014;-71
2022/12/16 01:17:44;;;;;;;93.25;38.20;;;;;;;-7.69;67.94;100531.28;6094257;23;20018;-71
2022/12/16 01:20:11;;;;;;;91.28;37.88;;;;;;;-7.73;68.46;100538.34;6093892;23;20364;-71
2022/12/16 01:22:37;;;;;;;99.10;41.75;;;;;;;-7.71;68.08;100533.06;6094509;23;20313;-71
2022/12/16 01:25:04;;;;;;;92.80;39.65;;;;;;;-7.66;68.00;100541.59;6094005;23;20023;-71
2022/12/16 01:27:31;;;;;;;90.72;38.20;;;;;;;-7.77;67.96;100541.94;6094296;23;20029;-70
2022/12/16 01:29:57;;;;;;;87.82;38.38;;;;;;;-7.69;67.87;100547.75;6095171;23;20022;-71
2022/12/16 01:32:24;;;;;;;88.38;38.08;;;;;;;-7.72;67.68;100542.63;6093010;23;20025;-71
2022/12/16 01:34:53;;;;;;;94.28;38.28;;;;;;;-7.72;68.30;100539.19;6094124;23;20344;-71
2022/12/16 01:37:20;;;;;;;96.18;38.17;;;;;;;-7.78;68.07;100537.63;6093536;23;20089;-71
2022/12/16 01:39:47;;;;;;;94.40;38.60;;;;;;;-7.85;68.48;100536.09;6068599;23;20025;-71
2022/12/16 01:42:17;;;;;;;91.05;37.72;;;;;;;-7.81;67.96;100542.91;6093014;23;20018;-71
2022/12/16 01:44:47;;;;;;;85.63;37.25;;;;;;;-7.79;67.71;100530.72;6093850;23;20032;-71
2022/12/16 01:47:34;;;;;;;89.43;38.30;;;;;;;-7.86;68.21;100537.00;6093101;23;20104;-71
2022/12/16 01:50:10;;;;;;;88.68;36.63;;;;;;;-8.04;68.51;100535.84;6092892;23;20022;-72
2022/12/16 01:52:42;;;;;;;89.82;36.50;;;;;;;-8.10;68.33;100534.25;6067909;23;20023;-71
2022/12/16 01:55:19;;;;;;;85.03;36.22;;;;;;;-8.24;69.05;100538.19;6065440;23;20027;-72
2022/12/16 01:57:58;;;;;;;86.20;36.45;;;;;;;-8.13;68.80;100539.56;6065899;23;20026;-71
2022/12/16 02:00:24;;;;;;;90.85;38.40;;;;;;;-8.10;68.71;100547.28;6065150;23;20019;-71
2022/12/16 02:02:52;;;;;;;88.45;37.95;;;;;;;-8.11;68.79;100542.97;6065205;23;20033;-71
2022/12/16 02:09:10;;;;;;;86.55;35.97;;;;;;;-8.11;69.00;100544.72;6063919;23;20510;-71
2022/12/16 02:12:10;;;;;;;88.78;38.38;;;;;;;-8.13;68.28;100538.72;6064858;23;20030;-71
2022/12/16 02:14:56;;;;;;;97.20;38.20;;;;;;;-8.23;68.59;100540.72;6064442;23;20482;-71
2022/12/16 02:17:40;;;;;;;90.53;37.17;;;;;;;-8.40;69.19;100535.16;6065256;23;20029;-71
2022/12/16 02:20:22;;;;;;;95.85;35.88;;;;;;;-8.37;68.98;100535.06;6065402;23;20312;-71
2022/12/16 02:22:58;;;;;;;82.95;34.58;;;;;;;-8.48;69.23;100540.59;6064899;23;20023;-71
2022/12/16 02:25:28;;;;;;;91.75;36.92;;;;;;;-8.38;69.01;100541.19;6064528;23;20101;-71
2022/12/16 02:28:01;;;;;;;87.18;36.05;;;;;;;-8.32;69.33;100544.47;6065443;23;20018;-71
2022/12/16 02:30:34;;;;;;;84.40;37.30;;;;;;;-8.36;69.22;100542.00;6066003;23;20023;-71
2022/12/16 02:33:25;;;;;;;84.28;35.72;;;;;;;-8.30;69.23;100539.19;6064974;23;20042;-70
2022/12/16 02:35:54;;;;;;;89.10;38.58;;;;;;;-8.17;68.68;100534.50;6064995;23;20031;-71
2022/12/16 02:38:38;;;;;;;94.32;38.75;;;;;;;-8.24;68.86;100533.81;6064945;23;20467;-71
2022/12/16 02:41:19;;;;;;;89.90;35.80;;;;;;;-8.22;68.59;100532.03;6064364;23;20022;-71
2022/12/16 02:43:51;;;;;;;92.28;37.13;;;;;;;-8.28;68.22;100532.22;6065660;23;20400;-71
2022/12/16 02:46:19;;;;;;;83.03;36.90;;;;;;;-8.37;68.88;100528.13;6065295;23;20408;-71
2022/12/16 02:48:46;;;;;;;83.53;35.80;;;;;;;-8.39;68.85;100529.09;6065789;23;20025;-71
2022/12/16 02:51:13;;;;;;;85.38;36.60;;;;;;;-8.49;69.04;100532.84;6072024;23;20022;-72
2022/12/16 02:53:42;;;;;;;99.85;37.38;;;;;;;-8.39;68.90;100524.72;6092110;23;20472;-71
2022/12/16 02:56:17;;;;;;;83.90;36.13;;;;;;;-8.35;68.56;100513.31;6093140;23;20022;-71
2022/12/16 02:59:08;;;;;;;95.13;37.47;;;;;;;-8.30;68.77;100519.22;6093853;23;20026;-71
2022/12/16 03:01:54;;;;;;;91.70;36.15;;;;;;;-8.23;68.43;100519.06;6091928;23;20316;-70
2022/12/16 03:04:30;;;;;;;90.85;36.05;;;;;;;-8.49;68.95;100519.84;6093589;23;20035;-72
2022/12/16 03:06:59;;;;;;;90.47;37.40;;;;;;;-8.38;68.78;100515.16;6093511;23;20026;-71
2022/12/16 03:09:31;;;;;;;78.22;35.13;;;;;;;-8.29;68.60;100520.13;6093130;23;20101;-70
2022/12/16 03:11:59;;;;;;;90.88;35.88;;;;;;;-8.34;68.27;100520.22;6093391;23;20032;-71
2022/12/16 03:14:29;;;;;;;92.93;36.03;;;;;;;-8.36;68.17;100524.63;6092737;23;20025;-71
2022/12/16 03:16:56;;;;;;;86.18;36.85;;;;;;;-8.45;68.38;100524.06;6093801;23;20105;-71
2022/12/16 03:19:25;;;;;;;83.28;35.95;;;;;;;-8.45;68.55;100518.84;6092919;23;20036;-71
2022/12/16 03:21:58;;;;;;;84.63;37.25;;;;;;;-8.45;68.48;100521.44;6092820;23;20045;-71
2022/12/16 03:24:25;;;;;;;90.25;35.45;;;;;;;-8.43;68.44;100517.06;6093198;23;20101;-70
2022/12/16 03:27:06;;;;;;;90.82;35.83;;;;;;;-8.45;68.71;100513.63;6091889;23;20045;-71
2022/12/16 03:30:02;;;;;;;82.90;36.50;;;;;;;-8.40;68.39;100510.03;6090829;23;20018;-71
2022/12/16 03:32:38;;;;;;;88.63;35.33;;;;;;;-8.59;68.74;100511.44;6092972;23;20081;-70
2022/12/16 03:35:16;;;;;;;80.88;35.53;;;;;;;-8.43;68.38;100504.06;6093950;23;20022;-70
2022/12/16 03:37:45;;;;;;;91.53;35.65;;;;;;;-8.41;68.36;100502.25;6092702;23;20015;-71
2022/12/16 03:40:12;;;;;;;84.40;34.33;;;;;;;-8.42;68.19;100505.75;6092571;23;20098;-70
2022/12/16 03:42:41;;;;;;;81.25;35.72;;;;;;;-8.38;68.24;100509.97;6091550;23;20028;-71
2022/12/16 03:45:12;;;;;;;93.35;35.85;;;;;;;-8.44;68.31;100504.94;6093435;23;20029;-70
2022/12/16 03:47:39;;;;;;;89.00;35.33;;;;;;;-8.41;68.36;100503.09;6092773;23;20033;-71
2022/12/16 03:50:06;;;;;;;82.80;34.97;;;;;;;-8.43;68.10;100502.31;6092504;23;20027;-69
2022/12/16 03:52:32;;;;;;;83.57;35.92;;;;;;;-8.47;68.40;100502.41;6092596;23;20022;-71
2022/12/16 03:55:00;;;;;;;82.45;34.38;;;;;;;-8.50;68.60;100502.50;6093224;23;20478;-71
2022/12/16 03:57:26;;;;;;;83.15;36.55;;;;;;;-8.38;68.51;100504.75;6091584;23;20022;-71
2022/12/16 03:59:53;;;;;;;84.10;33.53;;;;;;;-8.34;68.27;100506.38;6093367;23;20018;-71
2022/12/16 04:02:19;;;;;;;89.45;36.10;;;;;;;-8.33;68.22;100502.84;6091530;23;20023;-71
2022/12/16 04:04:46;;;;;;;84.32;36.85;;;;;;;-8.33;68.22;100503.75;6091637;23;20018;-71
2022/12/16 04:07:23;;;;;;;96.78;37.47;;;;;;;-8.34;68.58;100509.81;6092205;23;20033;-71
2022/12/16 04:09:51;;;;;;;82.40;36.33;;;;;;;-8.48;68.72;100518.94;6092739;23;20456;-71
2022/12/16 04:26:11;;;;;;;88.32;35.78;;;;;;;-8.31;68.86;100524.50;6093183;23;20359;-71
2022/12/16 04:28:38;;;;;;;87.63;35.72;;;;;;;-8.30;68.82;100524.44;6093274;23;20026;-70
2022/12/16 04:31:05;;;;;;;84.10;36.17;;;;;;;-8.33;69.05;100518.47;6093934;23;20029;-71
